Time;durP1;ratioP1;P1;durP2;ratioP2;P2;SDS_P1;SDS_P2;PMS_P1;PMS_P2;Temp;Humidity;BMP_temperature;BMP_pressure;BME280_temperature;BME280_humidity;BME280_pressure;Samples;Min_cycle;Max_cycle;Signal;HPM_P1;HPM_P2
2022/05/20 00:00:44;;;;;;;18.20;9.93;;;;;;;13.13;47.83;100552.98;1752137;81;25674;-73
2022/05/20 00:03:11;;;;;;;19.48;9.53;;;;;;;13.15;47.99;100552.13;1752150;81;27459;-71
2022/05/20 00:05:37;;;;;;;20.90;9.80;;;;;;;13.15;48.12;100554.84;1751844;81;25671;-70
2022/05/20 00:08:05;;;;;;;17.62;8.95;;;;;;;13.16;48.29;100554.53;1752072;81;25674;-71
2022/05/20 00:10:32;;;;;;;15.55;9.43;;;;;;;13.18;48.29;100552.84;1752120;81;25650;-71
2022/05/20 00:13:00;;;;;;;16.07;9.25;;;;;;;13.19;48.25;100549.00;1751935;81;25723;-71
2022/05/20 00:15:28;;;;;;;25.45;9.85;;;;;;;13.20;48.00;100546.53;1752073;81;27398;-71
2022/05/20 00:17:56;;;;;;;15.32;9.43;;;;;;;13.20;48.32;100544.61;1752029;81;25737;-71
2022/05/20 00:20:26;;;;;;;13.20;8.68;;;;;;;13.19;48.31;100544.92;1751882;81;25600;-72
2022/05/20 00:22:53;;;;;;;21.23;9.60;;;;;;;13.18;48.29;100533.84;1752284;81;26347;-72
2022/05/20 00:28:06;;;;;;;14.98;8.23;;;;;;;13.16;48.50;100536.05;1751876;81;27390;-70
2022/05/20 00:30:34;;;;;;;16.05;8.88;;;;;;;13.17;48.31;100537.66;1752030;81;25654;-72
2022/05/20 00:33:00;;;;;;;15.83;8.85;;;;;;;13.16;48.34;100539.59;1752110;81;25567;-72
2022/05/20 00:35:26;;;;;;;19.30;8.93;;;;;;;13.17;48.53;100539.81;1751863;81;26336;-72
2022/05/20 00:37:53;;;;;;;14.45;9.48;;;;;;;13.19;48.30;100545.72;1752095;81;25594;-72
2022/05/20 00:40:24;;;;;;;20.05;8.98;;;;;;;13.20;48.50;100551.39;1752040;81;27399;-72
2022/05/20 00:42:50;;;;;;;17.80;8.85;;;;;;;13.21;48.32;100540.78;1751795;81;25781;-70
2022/05/20 00:45:18;;;;;;;16.48;8.58;;;;;;;13.20;48.31;100537.81;1752060;81;25805;-72
2022/05/20 00:47:44;;;;;;;18.48;8.90;;;;;;;13.17;48.46;100531.66;1725203;81;26282;-72
2022/05/20 00:50:15;;;;;;;23.85;9.65;;;;;;;13.14;48.50;100524.72;1762695;81;25747;-72
2022/05/20 00:52:47;;;;;;;13.60;8.33;;;;;;;13.10;48.62;100530.56;1763188;81;28108;-72
2022/05/20 00:55:17;;;;;;;17.30;8.60;;;;;;;13.08;48.56;100542.53;1762949;81;25723;-72
2022/05/20 00:58:00;;;;;;;15.00;8.78;;;;;;;13.06;48.85;100539.34;1762874;81;25497;-70
2022/05/20 01:00:30;;;;;;;20.10;9.00;;;;;;;13.03;48.80;100533.19;1763075;81;25646;-72
2022/05/20 01:03:01;;;;;;;15.90;9.20;;;;;;;13.00;48.87;100533.03;1763099;81;25804;-72
2022/05/20 01:05:38;;;;;;;17.52;9.13;;;;;;;12.95;49.12;100532.62;1762525;81;28056;-72
2022/05/20 01:08:06;;;;;;;16.10;9.03;;;;;;;12.90;49.16;100520.56;1762915;81;25779;-72
2022/05/20 01:10:32;;;;;;;13.60;9.15;;;;;;;12.85;49.38;100523.43;1763011;81;25571;-72
2022/05/20 01:12:58;;;;;;;19.85;9.38;;;;;;;12.76;49.28;100527.50;1762671;81;25629;-72
2022/05/20 01:15:25;;;;;;;15.00;9.23;;;;;;;12.70;49.08;100524.15;1730989;81;25438;-72
2022/05/20 01:17:55;;;;;;;15.95;8.68;;;;;;;12.62;49.47;100519.50;1763015;81;28109;-71
2022/05/20 01:20:28;;;;;;;16.00;9.10;;;;;;;12.54;49.84;100512.70;1762729;81;25811;-71
2022/05/20 01:23:00;;;;;;;18.20;9.35;;;;;;;12.45;49.83;100518.13;1763082;81;25599;-72
2022/05/20 01:25:30;;;;;;;14.20;8.75;;;;;;;12.35;50.16;100509.71;1762918;81;25625;-70
2022/05/20 01:27:58;;;;;;;17.10;9.83;;;;;;;12.31;50.09;100527.74;1762967;81;25607;-71
2022/05/20 01:30:28;;;;;;;17.25;8.70;;;;;;;12.31;50.09;100527.74;1763003;81;27378;-70
2022/05/20 01:32:55;;;;;;;16.73;9.93;;;;;;;12.15;50.75;100512.44;1763044;81;25811;-70
2022/05/20 01:35:44;;;;;;;18.65;9.50;;;;;;;12.08;50.67;100508.03;1762707;81;25735;-73
2022/05/20 01:38:12;;;;;;;19.85;10.65;;;;;;;12.00;51.12;100506.88;1763070;81;25981;-71
2022/05/20 01:40:50;;;;;;;20.02;10.60;;;;;;;11.90;51.25;100506.59;1763076;81;25617;-70
2022/05/20 01:43:50;;;;;;;21.25;10.90;;;;;;;11.81;51.62;100501.66;1762894;81;27377;-70
2022/05/20 01:46:27;;;;;;;14.90;10.05;;;;;;;11.74;51.75;100502.11;1762923;81;25730;-70
2022/05/20 01:49:16;;;;;;;20.15;9.90;;;;;;;11.64;51.78;100505.66;1758379;81;25895;-72
2022/05/20 01:52:12;;;;;;;18.07;9.30;;;;;;;11.57;52.33;100503.38;1752382;81;25637;-71
2022/05/20 01:55:10;;;;;;;20.35;9.58;;;;;;;11.53;52.49;100496.44;1752340;81;25475;-71
2022/05/20 01:57:53;;;;;;;17.95;9.65;;;;;;;11.48;52.88;100484.37;1751988;81;27427;-71
2022/05/20 02:00:27;;;;;;;14.70;8.78;;;;;;;11.42;53.04;100486.95;1752169;81;25645;-70
2022/05/20 02:03:30;;;;;;;18.42;9.68;;;;;;;11.38;53.00;100481.36;1752357;81;25408;-70
2022/05/20 02:06:17;;;;;;;17.67;9.25;;;;;;;11.39;53.10;100481.63;1752539;81;27790;-70
2022/05/20 02:08:48;;;;;;;18.98;9.58;;;;;;;11.36;53.29;100483.59;1752125;81;25429;-71
2022/05/20 02:11:20;;;;;;;16.50;9.25;;;;;;;11.35;53.72;100474.41;1752517;81;27443;-71
2022/05/20 02:14:07;;;;;;;17.57;9.50;;;;;;;11.33;53.50;100467.95;1751253;81;25461;-70
2022/05/20 02:16:37;;;;;;;14.10;8.70;;;;;;;11.32;53.96;100459.59;1752564;81;25431;-70
2022/05/20 02:19:15;;;;;;;16.40;9.80;;;;;;;11.33;53.95;100460.39;1752273;81;25638;-71
2022/05/20 02:21:46;;;;;;;18.25;9.45;;;;;;;11.31;54.02;100466.11;1752366;81;25616;-71
2022/05/20 02:24:17;;;;;;;18.98;9.80;;;;;;;11.31;54.13;100466.11;1752480;81;27318;-71
2022/05/20 02:26:48;;;;;;;21.27;9.43;;;;;;;11.32;54.08;100471.78;1752458;81;25654;-71
2022/05/20 02:29:18;;;;;;;16.70;10.60;;;;;;;11.33;53.91;100474.72;1752466;81;25450;-71
2022/05/20 02:32:08;;;;;;;13.90;9.15;;;;;;;11.35;54.17;100464.94;1752450;81;26528;-72
2022/05/20 02:34:34;;;;;;;;;;;;;;;11.37;54.07;100462.71;1753761;81;25424;-71
2022/05/20 02:37:28;;;;;;;14.40;8.95;;;;;;;11.41;54.45;100466.42;1752499;81;27413;-71
2022/05/20 02:39:56;;;;;;;19.32;9.55;;;;;;;11.42;54.03;100465.85;1751115;81;25631;-72
2022/05/20 02:42:23;;;;;;;17.85;9.20;;;;;;;11.43;54.36;100464.75;1752488;81;25701;-70
2022/05/20 02:44:50;;;;;;;14.75;9.25;;;;;;;11.44;54.06;100465.80;1752432;81;26157;-72
2022/05/20 02:47:17;;;;;;;16.65;8.83;;;;;;;11.43;54.51;100467.47;1752466;81;25390;-70
2022/05/20 02:49:43;;;;;;;15.98;8.98;;;;;;;11.46;54.46;100469.53;1752350;81;27398;-71
2022/05/20 02:52:09;;;;;;;22.27;9.98;;;;;;;11.49;54.23;100464.84;1752347;81;25482;-71
2022/05/20 02:54:36;;;;;;;14.55;8.58;;;;;;;11.48;54.52;100465.41;1752503;81;25563;-71
2022/05/20 02:57:03;;;;;;;14.53;8.83;;;;;;;11.50;54.64;100465.11;1752353;81;25649;-71
2022/05/20 03:04:58;;;;;;;16.57;9.10;;;;;;;11.55;54.54;100464.97;1752379;81;25494;-71
2022/05/20 03:07:25;;;;;;;17.75;9.33;;;;;;;11.56;54.50;100460.60;1752449;81;25653;-71
2022/05/20 03:09:53;;;;;;;22.80;9.45;;;;;;;11.57;54.61;100462.75;1752477;81;25537;-72
2022/05/20 03:12:20;;;;;;;13.78;8.48;;;;;;;11.59;54.61;100458.63;1752608;81;25556;-70
2022/05/20 03:14:46;;;;;;;17.70;9.63;;;;;;;11.59;54.78;100459.98;1752384;81;27322;-71
2022/05/20 03:17:13;;;;;;;13.48;8.80;;;;;;;11.61;54.69;100454.80;1752301;81;25711;-70
2022/05/20 03:19:39;;;;;;;19.40;8.85;;;;;;;11.62;54.53;100455.05;1724743;81;25592;-70
2022/05/20 03:22:07;;;;;;;15.05;8.90;;;;;;;11.64;54.80;100459.59;1752431;81;26218;-70
2022/05/20 03:24:33;;;;;;;18.45;8.33;;;;;;;11.67;54.63;100448.14;1752453;81;25480;-70
2022/05/20 03:26:59;;;;;;;13.22;7.90;;;;;;;11.68;54.79;100453.25;1752422;81;28124;-71
2022/05/20 03:29:25;;;;;;;15.95;8.40;;;;;;;11.68;54.94;100442.41;1752388;81;25632;-71
2022/05/20 03:31:52;;;;;;;19.07;8.38;;;;;;;11.72;54.85;100448.00;1752469;81;25545;-71
2022/05/20 03:34:19;;;;;;;16.02;8.08;;;;;;;11.75;55.04;100441.96;1752356;81;25456;-71
2022/05/20 03:36:49;;;;;;;12.47;8.50;;;;;;;11.76;55.06;100448.42;1752474;81;25583;-71
2022/05/20 03:39:20;;;;;;;14.87;8.43;;;;;;;11.78;54.98;100447.55;1752431;81;27268;-71
2022/05/20 03:41:47;;;;;;;13.62;7.92;;;;;;;11.82;55.05;100446.93;1752368;81;25783;-71
2022/05/20 03:44:16;;;;;;;11.60;7.10;;;;;;;11.84;55.06;100450.12;1752427;81;25468;-71
2022/05/20 03:46:48;;;;;;;12.40;7.65;;;;;;;11.87;55.05;100454.92;1752396;81;25701;-71
2022/05/20 03:49:17;;;;;;;13.50;8.35;;;;;;;11.89;54.98;100443.98;1752415;81;25421;-71
2022/05/20 03:51:46;;;;;;;14.18;7.75;;;;;;;11.92;54.92;100445.32;1752373;81;27348;-71
2022/05/20 03:54:15;;;;;;;;;;;;;;;11.93;54.98;100438.20;1754993;81;25640;-71
2022/05/20 03:56:42;;;;;;;15.60;7.87;;;;;;;11.98;55.12;100433.77;1752436;81;25615;-71
2022/05/20 03:59:10;;;;;;;16.40;7.67;;;;;;;11.99;54.91;100431.31;1751700;81;25694;-72
2022/05/20 04:01:57;;;;;;;14.60;7.85;;;;;;;12.03;55.04;100424.13;1743816;81;25721;-71
2022/05/20 04:04:44;;;;;;;10.72;7.15;;;;;;;12.05;54.96;100431.39;1729391;83;27544;-72
2022/05/20 04:07:22;;;;;;;16.90;7.55;;;;;;;12.10;54.95;100427.17;1729101;83;25828;-72
2022/05/20 04:09:48;;;;;;;12.90;6.65;;;;;;;12.11;54.86;100421.44;1729486;82;25415;-72
2022/05/20 04:12:31;;;;;;;13.75;6.80;;;;;;;12.16;55.07;100431.34;1729448;83;25798;-72
2022/05/20 04:14:58;;;;;;;13.58;6.70;;;;;;;12.18;54.91;100429.67;1729533;82;25568;-72
2022/05/20 04:17:25;;;;;;;8.50;5.55;;;;;;;12.23;54.96;100432.23;1729439;83;27378;-72
2022/05/20 04:19:52;;;;;;;12.40;6.75;;;;;;;12.25;54.82;100424.58;1729400;83;25462;-72
2022/05/20 04:22:26;;;;;;;15.78;6.47;;;;;;;12.25;54.93;100418.59;1729490;82;25591;-72
2022/05/20 04:24:52;;;;;;;13.00;6.10;;;;;;;12.28;54.89;100428.02;1729454;83;25706;-72
2022/05/20 04:27:19;;;;;;;15.95;7.12;;;;;;;12.30;54.81;100438.78;1729659;82;25564;-72
2022/05/20 04:29:45;;;;;;;11.70;7.67;;;;;;;12.33;54.86;100430.02;1729597;83;28088;-72
2022/05/20 04:32:11;;;;;;;11.73;6.58;;;;;;;12.35;54.70;100440.55;1729519;83;25660;-72
2022/05/20 04:34:38;;;;;;;13.03;6.53;;;;;;;12.40;54.73;100443.11;1729661;83;25422;-72
2022/05/20 04:37:04;;;;;;;15.25;6.00;;;;;;;12.44;54.89;100437.84;1729616;82;25589;-71
2022/05/20 04:39:30;;;;;;;13.78;6.30;;;;;;;12.45;54.72;100434.81;1729647;82;25556;-71
2022/05/20 04:47:29;;;;;;;9.30;6.20;;;;;;;12.58;54.45;100435.80;1729630;83;25581;-72
2022/05/20 04:49:56;;;;;;;11.43;6.12;;;;;;;12.63;54.48;100435.63;1741764;81;25625;-72
2022/05/20 04:52:23;;;;;;;13.18;7.00;;;;;;;12.67;54.58;100425.72;1758220;81;25622;-72
2022/05/20 04:54:50;;;;;;;13.43;6.15;;;;;;;12.71;54.54;100411.74;1815664;79;27500;-72
2022/05/20 04:57:33;;;;;;;13.30;6.17;;;;;;;12.78;54.67;100406.40;1815614;79;25586;-72
2022/05/20 05:00:23;;;;;;;10.10;5.25;;;;;;;12.88;54.60;100410.14;1815717;79;25378;-71
2022/05/20 05:02:49;;;;;;;9.90;4.97;;;;;;;13.02;54.64;100408.60;1751772;81;25680;-71
2022/05/20 05:05:20;;;;;;;9.28;4.97;;;;;;;13.20;54.46;100394.44;1751577;81;25654;-71
2022/05/20 05:07:50;;;;;;;10.65;4.80;;;;;;;13.39;54.19;100394.87;1751586;81;27321;-71
2022/05/20 05:10:21;;;;;;;9.35;4.95;;;;;;;13.59;53.71;100398.00;1751472;81;25658;-71
2022/05/20 05:12:49;;;;;;;7.22;5.15;;;;;;;13.74;53.54;100403.43;1751619;81;25594;-71
2022/05/20 05:15:16;;;;;;;12.73;5.42;;;;;;;13.90;53.31;100395.53;1751529;81;25665;-72
2022/05/20 05:20:32;;;;;;;11.73;4.47;;;;;;;14.22;52.63;100395.95;1751674;81;27447;-70
2022/05/20 05:23:00;;;;;;;13.10;4.78;;;;;;;14.41;52.33;100397.66;1752065;81;25691;-71
2022/05/20 05:25:30;;;;;;;16.27;4.47;;;;;;;14.62;52.04;100406.41;1751607;81;25422;-71
2022/05/20 05:27:57;;;;;;;11.05;4.55;;;;;;;14.80;51.89;100403.77;1751554;81;25606;-71
2022/05/20 05:30:23;;;;;;;10.50;4.80;;;;;;;15.04;51.74;100409.08;1751742;81;25715;-71
2022/05/20 05:32:50;;;;;;;12.65;4.97;;;;;;;15.21;51.16;100411.61;1751606;81;28203;-72
2022/05/20 05:35:20;;;;;;;12.43;4.30;;;;;;;15.39;50.66;100412.23;1751601;81;25886;-71
2022/05/20 05:37:47;;;;;;;10.95;4.45;;;;;;;15.52;50.01;100410.30;1751636;81;25663;-71
2022/05/20 05:40:21;;;;;;;7.65;4.45;;;;;;;15.64;50.12;100412.23;1805674;79;25710;-70
2022/05/20 05:42:48;;;;;;;8.50;4.65;;;;;;;15.82;50.08;100423.76;1816146;78;25174;-72
2022/05/20 05:45:20;;;;;;;11.88;3.72;;;;;;;15.98;49.24;100430.09;1815803;79;27966;-72
2022/05/20 05:48:03;;;;;;;11.30;3.95;;;;;;;16.08;48.97;100428.84;1815652;78;25488;-73
2022/05/20 05:50:32;;;;;;;9.65;3.58;;;;;;;16.17;48.92;100429.51;1814721;78;25454;-71
2022/05/20 05:53:13;;;;;;;12.85;4.28;;;;;;;16.31;48.55;100422.89;1814104;79;26364;-72
2022/05/20 05:55:43;;;;;;;8.85;4.28;;;;;;;16.39;48.31;100426.85;1813788;79;25562;-73
2022/05/20 05:58:10;;;;;;;12.73;4.37;;;;;;;16.49;48.34;100417.39;1813660;79;27329;-73
2022/05/20 06:00:37;;;;;;;27.17;5.62;;;;;;;16.68;48.07;100417.34;1813580;79;25547;-72
2022/05/20 06:03:06;;;;;;;11.63;3.52;;;;;;;16.81;48.05;100418.30;1788325;79;25435;-72
2022/05/20 06:05:33;;;;;;;10.43;3.92;;;;;;;17.06;48.07;100414.13;1813189;79;25808;-73
2022/05/20 06:08:02;;;;;;;8.98;3.60;;;;;;;17.29;47.59;100406.70;1813720;79;25437;-74
2022/05/20 06:10:29;;;;;;;13.45;4.15;;;;;;;17.52;47.04;100408.23;1813697;79;28121;-74
2022/05/20 06:12:55;;;;;;;5.40;2.98;;;;;;;17.68;46.43;100412.36;1813577;79;25530;-74
2022/05/20 06:15:23;;;;;;;8.48;3.62;;;;;;;17.76;46.66;100400.44;1813662;79;25606;-72
2022/05/20 06:17:52;;;;;;;13.90;3.92;;;;;;;17.98;46.10;100409.16;1813582;79;25613;-73
2022/05/20 06:20:22;;;;;;;14.50;3.40;;;;;;;18.10;45.62;100412.58;1813842;78;25612;-73
2022/05/20 06:22:49;;;;;;;;;;;;;;;18.22;45.29;100408.93;1791293;79;28014;-73
2022/05/20 06:25:16;;;;;;;12.53;4.55;;;;;;;18.42;45.27;100405.64;1813557;79;25781;-72
2022/05/20 06:27:43;;;;;;;25.32;5.60;;;;;;;18.64;44.97;100410.98;1804348;77;25298;-73
2022/05/20 06:30:15;;;;;;;8.10;3.05;;;;;;;18.82;44.54;100396.84;1797933;79;26094;-72
2022/05/20 06:32:41;;;;;;;7.78;3.12;;;;;;;18.98;43.97;100393.44;1798059;79;25547;-73
2022/05/20 06:40:48;;;;;;;19.33;4.10;;;;;;;19.79;43.40;100393.06;1806555;77;25783;-71
2022/05/20 06:43:18;;;;;;;14.03;3.20;;;;;;;20.02;42.61;100383.37;1797905;79;25708;-71
2022/05/20 06:45:49;;;;;;;13.95;3.83;;;;;;;20.13;42.00;100382.95;1798078;79;25480;-70
2022/05/20 06:48:15;;;;;;;8.13;3.05;;;;;;;20.20;41.60;100380.10;1798056;79;27338;-71
2022/05/20 06:50:42;;;;;;;12.35;4.22;;;;;;;20.24;41.56;100375.44;1797575;79;25553;-72
2022/05/20 06:53:09;;;;;;;6.72;2.90;;;;;;;20.32;41.69;100372.41;1797628;79;25680;-73
2022/05/20 06:55:35;;;;;;;10.38;2.90;;;;;;;20.43;41.83;100369.80;1797434;79;25615;-69
2022/05/20 06:58:04;;;;;;;13.53;3.35;;;;;;;20.52;41.35;100377.16;1797457;79;25598;-71
2022/05/20 07:00:30;;;;;;;16.07;3.25;;;;;;;20.53;40.93;100371.08;1797520;79;27410;-71
2022/05/20 07:02:56;;;;;;;7.30;3.02;;;;;;;20.58;41.46;100372.11;1797304;79;25827;-72
2022/05/20 07:05:23;;;;;;;7.62;3.33;;;;;;;20.69;41.63;100373.06;1797302;79;25443;-72
2022/05/20 07:07:50;;;;;;;15.68;3.35;;;;;;;20.77;40.81;100374.52;1796476;78;25777;-72
2022/05/20 07:10:17;;;;;;;16.95;3.00;;;;;;;20.83;40.94;100380.67;1797067;78;25412;-72
2022/05/20 07:12:43;;;;;;;9.58;2.75;;;;;;;20.94;40.89;100377.24;1797460;78;28071;-71
2022/05/20 07:15:11;;;;;;;10.03;3.15;;;;;;;21.08;40.59;100376.80;1797257;79;25869;-71
2022/05/20 07:17:41;;;;;;;11.78;2.83;;;;;;;21.19;39.97;100380.23;1797489;79;25667;-73
2022/05/20 07:20:10;;;;;;;7.92;3.12;;;;;;;21.25;40.09;100374.02;1769193;79;25628;-72
2022/05/20 07:22:36;;;;;;;;;;;;;;;21.33;39.67;100374.06;1800918;79;25605;-71
2022/05/20 07:25:03;;;;;;;13.20;3.40;;;;;;;21.47;39.83;100376.17;1797428;79;27392;-71
2022/05/20 07:27:30;;;;;;;13.05;3.00;;;;;;;21.62;40.18;100373.16;1797318;79;25638;-71
2022/05/20 07:29:57;;;;;;;7.90;2.85;;;;;;;21.81;39.39;100374.05;1847582;77;25679;-72
2022/05/20 07:32:23;;;;;;;8.65;3.00;;;;;;;22.05;38.95;100376.77;1864472;77;25766;-72
2022/05/20 07:34:49;;;;;;;10.63;3.08;;;;;;;22.27;38.28;100377.67;1864529;77;25585;-71
2022/05/20 07:37:15;;;;;;;7.12;3.00;;;;;;;22.45;38.04;100371.46;1864492;77;27295;-72
2022/05/20 07:39:41;;;;;;;7.33;3.72;;;;;;;22.61;37.47;100373.87;1864451;77;25350;-72
2022/05/20 07:42:08;;;;;;;9.35;2.83;;;;;;;22.71;37.00;100368.97;1864498;77;25394;-72
2022/05/20 07:44:36;;;;;;;11.15;2.60;;;;;;;22.71;36.71;100365.65;1864457;77;25686;-71
2022/05/20 07:47:03;;;;;;;11.22;3.40;;;;;;;22.82;36.80;100362.91;1864418;77;25390;-72
2022/05/20 07:49:30;;;;;;;10.38;2.67;;;;;;;23.02;36.34;100368.85;1864390;77;27459;-71
2022/05/20 07:51:57;;;;;;;10.88;3.40;;;;;;;23.21;36.63;100368.31;1845311;77;25533;-72
2022/05/20 07:54:27;;;;;;;8.75;3.10;;;;;;;23.40;35.80;100366.53;1842279;77;25458;-74
2022/05/20 07:56:59;;;;;;;10.35;3.02;;;;;;;23.51;35.93;100369.27;1842345;77;25657;-76
2022/05/20 07:59:30;;;;;;;10.58;3.33;;;;;;;23.71;36.04;100364.12;1842281;77;25715;-76
2022/05/20 08:01:59;;;;;;;6.28;3.10;;;;;;;23.89;35.36;100366.09;1842195;77;27304;-75
2022/05/20 08:04:55;;;;;;;9.78;3.05;;;;;;;24.03;34.97;100361.92;1842358;77;25445;-76
2022/05/20 08:07:29;;;;;;;10.13;2.70;;;;;;;24.15;34.78;100355.95;1842262;77;25376;-75
2022/05/20 08:09:55;;;;;;;9.30;3.67;;;;;;;24.21;34.31;100358.50;1841993;77;25602;-72
2022/05/20 08:12:23;;;;;;;11.33;2.72;;;;;;;24.37;34.87;100360.02;1842264;77;25376;-72
2022/05/20 08:14:50;;;;;;;12.40;3.42;;;;;;;24.56;34.69;100355.40;1842403;77;28013;-69
2022/05/20 08:17:20;;;;;;;6.95;2.75;;;;;;;24.91;34.24;100356.96;1842145;77;25827;-71
2022/05/20 08:19:48;;;;;;;8.98;3.17;;;;;;;24.98;34.25;100356.33;1842253;77;25428;-69
2022/05/20 08:22:17;;;;;;;8.30;3.00;;;;;;;24.80;33.73;100351.52;1842164;77;25614;-66
2022/05/20 08:24:42;;;;;;;9.97;3.03;;;;;;;24.66;33.34;100358.52;1843396;77;25300;-73
2022/05/20 08:27:08;;;;;;;8.68;3.10;;;;;;;24.58;34.63;100358.54;1843720;77;27308;-74
2022/05/20 08:29:35;;;;;;;11.33;3.12;;;;;;;24.71;35.83;100349.80;1844318;77;25643;-73
2022/05/20 08:32:01;;;;;;;10.82;3.33;;;;;;;24.93;35.26;100344.31;1844298;77;25276;-72
2022/05/20 08:34:27;;;;;;;8.88;3.35;;;;;;;25.09;34.17;100359.01;1828714;77;25672;-71
2022/05/20 08:36:53;;;;;;;9.63;3.75;;;;;;;24.96;33.98;100346.84;1747421;80;25779;-72
2022/05/20 08:39:19;;;;;;;6.28;3.22;;;;;;;24.88;33.99;100340.59;1747391;80;27256;-71
2022/05/20 08:41:51;;;;;;;8.38;3.10;;;;;;;24.91;34.49;100352.81;1771954;80;25777;-72
2022/05/20 08:44:21;;;;;;;10.63;3.60;;;;;;;24.99;35.07;100333.59;1752389;81;25575;-72
2022/05/20 08:46:49;;;;;;;8.28;3.42;;;;;;;25.24;34.97;100330.62;1805603;79;25704;-72
2022/05/20 08:49:19;;;;;;;9.70;2.87;;;;;;;25.57;35.27;100326.98;1807226;77;25620;-72
2022/05/20 08:51:52;;;;;;;7.15;4.22;;;;;;;25.77;34.99;100316.70;1808855;78;27321;-72
2022/05/20 08:54:18;;;;;;;7.80;3.12;;;;;;;26.08;36.15;100314.78;1753412;80;25799;-72
2022/05/20 08:56:46;;;;;;;8.25;3.35;;;;;;;26.63;34.88;100315.67;1746751;81;25295;-72
2022/05/20 08:59:20;;;;;;;11.05;3.37;;;;;;;27.12;34.57;100316.06;1755505;80;26206;-71
2022/05/20 09:01:50;;;;;;;7.97;3.02;;;;;;;27.46;34.08;100311.56;1786843;80;25690;-72
2022/05/20 09:04:24;;;;;;;22.62;3.98;;;;;;;27.44;32.59;100317.53;1787467;80;28004;-72
2022/05/20 09:07:05;;;;;;;7.50;3.33;;;;;;;27.26;32.29;100321.20;1787962;80;25663;-73
2022/05/20 09:09:55;;;;;;;9.20;3.58;;;;;;;27.15;32.37;100320.00;1786093;80;25234;-72
2022/05/20 09:12:38;;;;;;;13.05;3.60;;;;;;;27.02;33.08;100311.48;1670744;84;25632;-73
2022/05/20 09:18:08;;;;;;;10.55;3.45;;;;;;;27.18;32.04;100303.28;1671489;85;27587;-72
2022/05/20 09:20:37;;;;;;;9.65;3.33;;;;;;;26.99;32.43;100302.02;1671089;85;25860;-72
2022/05/20 09:23:06;;;;;;;6.85;3.47;;;;;;;27.05;32.47;100309.86;1670611;85;25619;-72
2022/05/20 09:25:36;;;;;;;;;;;;;;;27.03;31.97;100301.95;1673698;85;25622;-71
2022/05/20 09:28:37;;;;;;;18.67;4.17;;;;;;;27.13;32.65;100298.22;1671211;85;25741;-67
2022/05/20 09:31:14;;;;;;;7.40;3.30;;;;;;;27.34;32.66;100296.30;1671215;85;27404;-68
2022/05/20 09:33:49;;;;;;;12.63;3.98;;;;;;;27.32;31.99;100308.44;1649937;87;25649;-67
2022/05/20 09:36:33;;;;;;;11.05;3.77;;;;;;;27.12;31.85;100298.64;1650027;87;25788;-67
2022/05/20 09:39:13;;;;;;;6.00;3.55;;;;;;;27.13;31.33;100296.05;1599671;89;25834;-65
2022/05/20 09:41:55;;;;;;;10.80;3.40;;;;;;;27.31;33.42;100291.59;1600157;89;25836;-66
2022/05/20 09:44:30;;;;;;;8.10;3.55;;;;;;;27.46;32.04;100296.28;1600171;89;27565;-66
2022/05/20 09:47:20;;;;;;;13.58;3.58;;;;;;;27.54;31.88;100297.11;1622947;87;25846;-66
2022/05/20 09:49:52;;;;;;;9.63;3.30;;;;;;;27.65;31.75;100296.93;1637217;86;25711;-69
2022/05/20 09:52:57;;;;;;;7.50;3.25;;;;;;;27.98;31.68;100285.20;1631487;87;26169;-66
2022/05/20 09:55:43;;;;;;;15.18;4.05;;;;;;;28.09;31.86;100282.95;1630127;88;25552;-66
2022/05/20 09:58:27;;;;;;;7.62;3.30;;;;;;;28.20;30.99;100284.91;1627802;88;28372;-66
2022/05/20 10:01:10;;;;;;;11.60;3.37;;;;;;;28.32;31.50;100291.19;1629834;88;25726;-67
2022/05/20 10:03:47;;;;;;;11.25;3.33;;;;;;;28.68;31.49;100279.88;1629517;88;26621;-65
2022/05/20 10:06:36;;;;;;;8.45;3.72;;;;;;;28.74;30.04;100271.78;1629867;88;27769;-65
2022/05/20 10:09:38;;;;;;;10.18;3.80;;;;;;;28.75;30.47;100268.58;1629913;87;25564;-65
2022/05/20 10:12:12;;;;;;;9.18;3.27;;;;;;;29.02;30.18;100266.91;1663746;85;27536;-65
2022/05/20 10:14:47;;;;;;;6.00;3.37;;;;;;;29.18;29.61;100259.16;1670655;81;25559;-66
2022/05/20 10:17:45;;;;;;;8.10;3.40;;;;;;;29.20;28.97;100274.03;1759856;81;25457;-65
2022/05/20 10:20:29;;;;;;;13.03;3.60;;;;;;;29.27;29.65;100263.32;1759436;81;25679;-66
2022/05/20 10:23:39;;;;;;;3.60;3.00;;;;;;;29.78;29.03;100262.94;1759671;81;25456;-67
2022/05/20 10:26:28;;;;;;;10.30;3.80;;;;;;;29.78;28.46;100260.14;1759557;81;28350;-66
2022/05/20 10:32:34;;;;;;;8.95;3.37;;;;;;;30.03;28.04;100246.06;1726130;83;25762;-66
2022/05/20 10:35:17;;;;;;;8.83;3.65;;;;;;;29.77;28.12;100258.57;1725801;83;25679;-68
2022/05/20 10:38:01;;;;;;;15.95;3.80;;;;;;;29.49;28.34;100256.56;1725240;83;25363;-69
2022/05/20 10:40:45;;;;;;;7.50;3.50;;;;;;;29.33;28.92;100254.61;1725892;83;28206;-71
2022/05/20 10:50:02;;;;;;;11.30;3.58;;;;;;;29.37;29.50;100231.61;1725812;83;26451;-68
2022/05/20 10:52:54;;;;;;;13.32;3.77;;;;;;;29.71;29.58;100246.39;1742978;80;25917;-69
2022/05/20 10:55:52;;;;;;;6.37;3.35;;;;;;;29.72;29.82;100228.42;1750334;81;28136;-69
2022/05/20 10:58:54;;;;;;;8.28;2.60;;;;;;;30.30;30.32;100224.71;1750525;81;25777;-68
2022/05/20 11:02:02;;;;;;;8.28;3.35;;;;;;;30.89;29.68;100221.02;1750645;81;25339;-69
2022/05/20 11:04:49;;;;;;;8.30;3.02;;;;;;;31.40;29.28;100233.27;1750505;81;25851;-69
2022/05/20 11:07:32;;;;;;;5.33;2.87;;;;;;;31.76;28.80;100231.36;1785756;80;25651;-69
2022/05/20 11:10:28;;;;;;;10.35;3.30;;;;;;;31.95;28.05;100218.88;1787792;80;27287;-68
2022/05/20 11:13:20;;;;;;;5.80;3.15;;;;;;;32.07;27.67;100213.05;1787569;80;25395;-69
2022/05/20 11:16:06;;;;;;;5.78;2.77;;;;;;;32.22;27.63;100209.84;1787003;80;25702;-69
2022/05/20 11:18:54;;;;;;;11.20;3.35;;;;;;;31.83;27.42;100200.32;1787051;80;26360;-69
2022/05/20 11:21:48;;;;;;;3.90;2.58;;;;;;;31.83;27.42;100200.32;1787792;80;25597;-69
2022/05/20 11:24:34;;;;;;;8.15;3.15;;;;;;;31.62;27.62;100205.34;1787808;80;28137;-69
2022/05/20 11:27:32;;;;;;;9.08;2.80;;;;;;;31.31;28.19;100203.23;1787627;80;25606;-68
2022/05/20 11:30:30;;;;;;;7.85;2.72;;;;;;;30.89;28.16;100197.91;1788007;80;25472;-68
2022/05/20 11:33:23;;;;;;;6.67;2.90;;;;;;;30.64;29.08;100205.73;1736389;82;25813;-68
2022/05/20 11:36:10;;;;;;;8.53;5.00;;;;;;;30.76;29.61;100186.78;1736641;82;25663;-67
2022/05/20 11:39:28;;;;;;;9.78;2.90;;;;;;;30.69;29.17;100194.77;1736453;82;27318;-72
2022/05/20 11:42:35;;;;;;;7.58;3.00;;;;;;;30.62;29.60;100185.25;1736464;82;25675;-81
2022/05/20 11:45:10;;;;;;;7.47;3.20;;;;;;;30.60;29.82;100183.53;1719056;82;25778;-77
2022/05/20 11:47:45;;;;;;;5.53;2.87;;;;;;;30.66;29.84;100189.31;1693153;83;25820;-75
2022/05/20 11:50:26;;;;;;;4.22;3.15;;;;;;;30.60;29.60;100183.53;1706214;84;25681;-71
2022/05/20 11:53:01;;;;;;;8.18;3.45;;;;;;;30.65;30.00;100179.37;1744392;81;27302;-73
2022/05/20 11:55:36;;;;;;;10.55;2.40;;;;;;;30.70;30.25;100176.03;1745385;82;26493;-73
2022/05/20 11:58:14;;;;;;;11.50;3.05;;;;;;;30.69;29.64;100168.88;1745684;82;25456;-73
2022/05/20 12:00:43;;;;;;;11.48;2.47;;;;;;;30.85;30.23;100167.33;1745580;82;25626;-70
2022/05/20 12:03:14;;;;;;;7.00;2.50;;;;;;;31.07;29.63;100159.61;1745679;82;25658;-71
2022/05/20 12:05:45;;;;;;;6.50;2.77;;;;;;;30.87;29.83;100152.30;1745768;80;27339;-71
2022/05/20 12:08:42;;;;;;;8.13;2.50;;;;;;;31.07;29.78;100188.93;1745617;82;26327;-71
2022/05/20 12:11:34;;;;;;;8.23;2.90;;;;;;;30.84;29.59;100149.64;1787556;78;25374;-71
2022/05/20 12:14:16;;;;;;;5.28;2.45;;;;;;;30.64;29.29;100154.11;1785957;80;25411;-75
2022/05/20 12:17:03;;;;;;;3.02;2.08;;;;;;;30.73;30.41;100156.97;1766550;80;25689;-74
2022/05/20 12:26:03;;;;;;;7.60;2.95;;;;;;;31.22;29.29;100144.52;1694977;84;25774;-73
2022/05/20 12:28:34;;;;;;;10.05;3.00;;;;;;;31.33;29.08;100151.89;1697913;84;25784;-75
2022/05/20 12:31:33;;;;;;;10.03;2.50;;;;;;;31.19;28.41;100149.61;1665589;85;25782;-76
2022/05/20 12:34:10;;;;;;;;;;;;;;;30.88;28.93;100148.88;1624011;87;27342;-72